createdAt,value
2018-01-01T00:01:03.251Z,8.60
2018-01-01T00:03:31.300Z,8.60
2018-01-01T00:06:00.083Z,8.70
2018-01-01T00:08:28.087Z,8.60
2018-01-01T00:10:56.910Z,8.70
2018-01-01T00:13:24.932Z,8.60
2018-01-01T00:15:52.936Z,8.70
2018-01-01T00:18:20.943Z,8.70
2018-01-01T00:20:48.964Z,8.80
2018-01-01T00:23:16.963Z,8.80
2018-01-01T00:25:44.983Z,8.80
2018-01-01T00:28:13.776Z,8.80
2018-01-01T00:30:42.544Z,8.70
2018-01-01T00:33:10.560Z,8.70
2018-01-01T00:35:39.337Z,8.70
2018-01-01T00:38:07.335Z,8.60
2018-01-01T00:40:35.351Z,8.70
2018-01-01T00:43:03.376Z,8.70
2018-01-01T00:45:31.371Z,8.70
2018-01-01T00:47:59.407Z,8.70
2018-01-01T00:50:27.416Z,8.80
2018-01-01T00:52:55.745Z,8.80
2018-01-01T00:55:24.521Z,8.80
2018-01-01T00:57:52.531Z,8.80
2018-01-01T01:00:21.300Z,8.90
2018-01-01T01:02:49.316Z,8.90
2018-01-01T01:05:18.105Z,8.90
2018-01-01T01:07:46.108Z,8.90
2018-01-01T01:10:14.889Z,8.90
2018-01-01T01:12:43.664Z,8.90
2018-01-01T01:15:11.717Z,8.90
2018-01-01T01:17:39.926Z,9.00
2018-01-01T01:20:07.997Z,9.10
2018-01-01T01:22:36.053Z,9.20
2018-01-01T01:25:04.895Z,9.20
2018-01-01T01:27:33.676Z,9.30
2018-01-01T01:30:01.721Z,9.20
2018-01-01T01:32:29.774Z,9.30
2018-01-01T01:34:57.844Z,9.40
2018-01-01T01:37:25.879Z,9.40
2018-01-01T01:39:54.716Z,9.30
2018-01-01T01:42:22.757Z,9.30
2018-01-01T01:44:50.847Z,9.40
2018-01-01T01:47:18.904Z,9.40
2018-01-01T01:49:46.936Z,9.40
2018-01-01T01:52:15.760Z,9.40
2018-01-01T01:54:43.789Z,9.40
2018-01-01T01:57:11.839Z,9.50
2018-01-01T01:59:39.897Z,9.50
2018-01-01T02:02:09.041Z,9.50
2018-01-01T02:04:37.080Z,9.40
2018-01-01T02:07:05.868Z,9.60
2018-01-01T02:09:34.620Z,9.60
2018-01-01T02:12:02.681Z,9.70
2018-01-01T02:14:30.733Z,9.60
2018-01-01T02:16:58.800Z,9.60
2018-01-01T02:19:26.837Z,9.60
2018-01-01T02:21:54.888Z,9.70
2018-01-01T02:24:22.917Z,9.60
2018-01-01T02:26:51.005Z,9.70
2018-01-01T02:29:19.024Z,9.70
2018-01-01T02:31:47.073Z,9.70
2018-01-01T02:34:15.126Z,9.70
2018-01-01T02:36:43.920Z,9.60
2018-01-01T02:39:12.736Z,9.60
2018-01-01T02:41:40.768Z,9.50
2018-01-01T02:44:08.829Z,9.60
2018-01-01T02:46:36.883Z,9.60
2018-01-01T02:49:05.791Z,9.60
2018-01-01T02:51:34.610Z,9.50
2018-01-01T02:54:02.632Z,9.50
2018-01-01T02:56:30.681Z,9.50
2018-01-01T02:58:58.737Z,9.60
2018-01-01T03:01:27.537Z,9.40
2018-01-01T03:03:56.344Z,9.40
2018-01-01T03:06:24.388Z,9.40
2018-01-01T03:08:52.449Z,9.40
2018-01-01T03:11:20.764Z,9.40
2018-01-01T03:13:48.807Z,9.50
2018-01-01T03:16:16.848Z,9.50
2018-01-01T03:18:45.652Z,9.40
2018-01-01T03:21:14.477Z,9.50
2018-01-01T03:23:42.524Z,9.40
2018-01-01T03:26:10.551Z,9.40
2018-01-01T03:28:38.604Z,9.40
2018-01-01T03:31:06.628Z,9.40
2018-01-01T03:33:34.680Z,9.40
2018-01-01T03:36:03.492Z,9.40
2018-01-01T03:38:32.292Z,9.30
2018-01-01T03:41:00.348Z,9.20
2018-01-01T03:43:28.421Z,9.20
2018-01-01T03:45:57.412Z,9.30
2018-01-01T03:48:26.281Z,9.20
2018-01-01T03:50:54.308Z,9.30
2018-01-01T03:53:22.363Z,9.20
2018-01-01T03:55:50.413Z,9.20
2018-01-01T03:58:19.253Z,9.20
2018-01-01T04:00:47.301Z,9.20
2018-01-01T04:03:15.822Z,9.10
2018-01-01T04:05:43.856Z,9.20
2018-01-01T04:08:11.906Z,9.10
2018-01-01T04:10:39.943Z,9.10
2018-01-01T04:13:08.761Z,9.10
2018-01-01T04:15:36.788Z,9.00
2018-01-01T04:18:04.832Z,9.00
2018-01-01T04:20:32.873Z,9.10
2018-01-01T04:23:00.940Z,9.10
2018-01-01T04:25:28.992Z,9.10
2018-01-01T04:27:57.032Z,9.10
2018-01-01T04:30:25.844Z,9.00
2018-01-01T04:32:54.649Z,9.00
2018-01-01T04:35:22.721Z,9.00
2018-01-01T04:37:51.540Z,9.00
2018-01-01T04:40:20.328Z,9.00
2018-01-01T04:42:49.139Z,9.00
2018-01-01T04:45:17.937Z,9.00
2018-01-01T04:47:46.763Z,9.00
2018-01-01T04:50:14.816Z,8.90
2018-01-01T04:52:43.616Z,9.00
2018-01-01T04:55:12.436Z,9.00
2018-01-01T04:57:40.468Z,8.90
2018-01-01T05:00:08.518Z,8.90
2018-01-01T05:02:36.548Z,8.90
2018-01-01T05:05:04.596Z,8.90
2018-01-01T05:07:32.648Z,9.00
2018-01-01T05:10:01.448Z,8.90
2018-01-01T05:12:30.264Z,8.90
2018-01-01T05:14:58.312Z,8.90
2018-01-01T05:17:26.360Z,9.00
2018-01-01T05:19:54.392Z,9.00
2018-01-01T05:22:23.698Z,8.90
2018-01-01T05:24:51.745Z,8.90
2018-01-01T05:27:20.176Z,8.90
2018-01-01T05:29:48.212Z,8.90
2018-01-01T05:32:16.248Z,8.90
2018-01-01T05:34:45.072Z,8.90
2018-01-01T05:37:13.109Z,8.80
2018-01-01T05:39:41.205Z,8.90
2018-01-01T05:42:09.236Z,8.90
2018-01-01T05:44:38.040Z,8.90
2018-01-01T05:47:06.097Z,8.80
2018-01-01T05:49:34.900Z,8.80
2018-01-01T05:52:03.760Z,8.80
2018-01-01T05:54:31.799Z,8.70
2018-01-01T05:56:59.856Z,8.80
2018-01-01T05:59:28.673Z,8.80
2018-01-01T06:01:57.492Z,8.80
2018-01-01T06:04:25.540Z,8.80
2018-01-01T06:06:54.336Z,8.80
2018-01-01T06:09:22.389Z,8.80
2018-01-01T06:11:50.420Z,8.80
2018-01-01T06:14:19.245Z,8.80
2018-01-01T06:16:47.293Z,8.70
2018-01-01T06:19:15.328Z,8.80
2018-01-01T06:21:43.393Z,8.70
2018-01-01T06:24:11.424Z,8.70
2018-01-01T06:26:39.476Z,8.80
2018-01-01T06:29:07.529Z,8.70
2018-01-01T06:31:36.328Z,8.80
2018-01-01T06:34:05.164Z,8.70
2018-01-01T06:36:33.203Z,8.60
2018-01-01T06:39:01.249Z,8.70
2018-01-01T06:41:29.300Z,8.70
2018-01-01T06:43:57.333Z,8.70
2018-01-01T06:46:25.387Z,8.70
2018-01-01T06:48:53.420Z,8.70
2018-01-01T06:51:22.232Z,8.60
2018-01-01T06:53:51.052Z,8.70
2018-01-01T06:56:19.085Z,8.60
2018-01-01T06:58:47.141Z,8.70
2018-01-01T07:01:15.167Z,8.60
2018-01-01T07:03:43.984Z,8.70
2018-01-01T07:06:12.805Z,8.60
2018-01-01T07:08:40.840Z,8.60
2018-01-01T07:11:08.913Z,8.70
2018-01-01T07:13:36.940Z,8.60
2018-01-01T07:16:04.992Z,8.50
2018-01-01T07:18:33.025Z,8.60
2018-01-01T07:21:01.061Z,8.60
2018-01-01T07:23:29.131Z,8.60
2018-01-01T07:25:57.168Z,8.50
2018-01-01T07:28:25.219Z,8.50
2018-01-01T07:30:53.276Z,8.60
2018-01-01T07:33:21.314Z,8.50
2018-01-01T07:35:50.133Z,8.50
2018-01-01T07:38:18.164Z,8.50
2018-01-01T07:40:46.223Z,8.50
2018-01-01T07:43:14.276Z,8.50
2018-01-01T07:45:42.312Z,8.40
2018-01-01T07:48:10.365Z,8.40
2018-01-01T07:50:38.406Z,8.50
2018-01-01T07:53:07.220Z,8.40
2018-01-01T07:55:35.268Z,8.40
2018-01-01T07:58:03.309Z,8.50
2018-01-01T08:00:31.352Z,8.40
2018-01-01T08:02:59.383Z,8.20
2018-01-01T08:05:27.457Z,7.80
2018-01-01T08:07:55.513Z,7.70
2018-01-01T08:10:24.305Z,7.30
2018-01-01T08:12:52.400Z,7.20
2018-01-01T08:15:21.205Z,7.10
2018-01-01T08:17:50.020Z,7.10
2018-01-01T08:20:18.080Z,7.00
2018-01-01T08:22:46.886Z,6.90
2018-01-01T08:25:15.700Z,6.90
2018-01-01T08:27:43.728Z,6.80
2018-01-01T08:30:11.785Z,7.00
2018-01-01T08:32:39.828Z,7.00
2018-01-01T08:35:08.632Z,7.20
2018-01-01T08:37:37.441Z,7.20
2018-01-01T08:40:06.248Z,7.30
2018-01-01T08:42:35.061Z,7.20
2018-01-01T08:45:03.153Z,7.20
2018-01-01T08:47:31.176Z,7.20
2018-01-01T08:49:59.228Z,7.20
2018-01-01T08:52:27.256Z,7.30
2018-01-01T08:54:55.317Z,7.30
2018-01-01T08:57:23.365Z,7.40
2018-01-01T08:59:51.400Z,7.40
2018-01-01T09:02:19.451Z,7.40
2018-01-01T09:04:47.478Z,7.50
2018-01-01T09:07:15.528Z,7.50
2018-01-01T09:09:43.561Z,7.50
2018-01-01T09:12:12.384Z,7.50
2018-01-01T09:14:40.438Z,7.50
2018-01-01T09:17:09.237Z,7.60
2018-01-01T09:19:37.300Z,7.50
2018-01-01T09:22:05.332Z,7.60
2018-01-01T09:24:33.381Z,7.60
2018-01-01T09:27:01.410Z,7.60
2018-01-01T09:29:29.483Z,7.60
2018-01-01T09:31:57.556Z,7.70
2018-01-01T09:34:26.351Z,7.60
2018-01-01T09:36:55.163Z,7.60
2018-01-01T09:39:23.201Z,7.60
2018-01-01T09:41:51.252Z,7.70
2018-01-01T09:44:19.308Z,7.70
2018-01-01T09:46:47.352Z,7.70
2018-01-01T09:49:15.394Z,7.70
2018-01-01T09:51:43.424Z,7.70
2018-01-01T09:54:11.476Z,7.70
2018-01-01T09:56:39.529Z,7.70
2018-01-01T09:59:08.329Z,7.70
2018-01-01T10:01:37.149Z,7.70
2018-01-01T10:04:05.200Z,7.60
2018-01-01T10:06:33.266Z,7.70
2018-01-01T10:09:01.316Z,7.80
2018-01-01T10:11:29.352Z,7.90
2018-01-01T10:13:58.164Z,8.00
2018-01-01T10:16:27.010Z,8.10
2018-01-01T10:18:55.888Z,8.10
2018-01-01T10:21:23.916Z,8.10
2018-01-01T10:23:51.964Z,8.20
2018-01-01T10:26:20.021Z,8.20
2018-01-01T10:28:48.821Z,8.40
2018-01-01T10:31:17.639Z,8.40
2018-01-01T10:33:45.661Z,8.30
2018-01-01T10:36:13.708Z,8.40
2018-01-01T10:38:41.757Z,8.50
2018-01-01T10:41:09.811Z,8.50
2018-01-01T10:43:37.860Z,8.40
2018-01-01T10:46:05.917Z,8.40
2018-01-01T10:48:33.961Z,8.20
2018-01-01T10:51:02.000Z,8.10
2018-01-01T10:53:30.824Z,7.90
2018-01-01T10:55:58.897Z,7.90
2018-01-01T10:58:26.924Z,8.00
2018-01-01T11:00:55.024Z,8.10
2018-01-01T11:03:23.048Z,8.20
2018-01-01T11:05:51.104Z,8.20
2018-01-01T11:08:19.920Z,8.20
2018-01-01T11:10:48.716Z,8.20
2018-01-01T11:13:16.832Z,8.20
2018-01-01T11:15:44.864Z,8.10
2018-01-01T11:18:12.913Z,8.20
2018-01-01T11:20:40.962Z,8.10
2018-01-01T11:23:09.774Z,8.10
2018-01-01T11:25:37.820Z,8.00
2018-01-01T11:28:05.857Z,8.00
2018-01-01T11:30:33.917Z,8.10
2018-01-01T11:33:01.949Z,8.20
2018-01-01T11:35:30.017Z,8.20
2018-01-01T11:37:58.860Z,8.30
2018-01-01T11:40:27.674Z,8.80
2018-01-01T11:42:55.732Z,8.80
2018-01-01T11:45:23.796Z,9.30
2018-01-01T11:47:51.854Z,9.60
2018-01-01T11:50:19.910Z,9.50
2018-01-01T11:52:47.963Z,9.40
2018-01-01T11:55:16.005Z,9.10
2018-01-01T11:57:44.042Z,8.90
2018-01-01T12:00:12.097Z,9.00
2018-01-01T12:02:40.149Z,9.20
2018-01-01T12:05:08.228Z,9.60
2018-01-01T12:07:36.336Z,10.00
2018-01-01T12:10:04.377Z,10.20
2018-01-01T12:12:33.209Z,10.70
2018-01-01T12:15:01.260Z,10.60
2018-01-01T12:17:30.065Z,10.30
2018-01-01T12:19:58.888Z,10.30
2018-01-01T12:22:26.920Z,10.20
2018-01-01T12:24:54.977Z,10.30
2018-01-01T12:27:23.029Z,10.10
2018-01-01T12:29:51.063Z,9.80
2018-01-01T12:32:19.116Z,9.70
2018-01-01T12:34:47.158Z,9.80
2018-01-01T12:37:15.993Z,9.60
2018-01-01T12:39:44.048Z,9.60
2018-01-01T12:42:12.889Z,9.30
2018-01-01T12:44:41.672Z,9.30
2018-01-01T12:47:09.704Z,9.30
2018-01-01T12:49:37.756Z,9.20
2018-01-01T12:52:05.805Z,9.10
2018-01-01T12:54:34.605Z,8.90
2018-01-01T12:57:03.422Z,8.90
2018-01-01T12:59:32.233Z,8.80
2018-01-01T13:02:00.280Z,8.80
2018-01-01T13:04:28.328Z,8.80
2018-01-01T13:06:56.365Z,8.70
2018-01-01T13:09:25.185Z,8.70
2018-01-01T13:11:53.216Z,8.70
2018-01-01T13:14:21.272Z,8.80
2018-01-01T13:16:49.330Z,8.80
2018-01-01T13:19:18.146Z,8.80
2018-01-01T13:21:46.193Z,8.70
2018-01-01T13:24:14.224Z,8.70
2018-01-01T13:26:42.281Z,8.70
2018-01-01T13:29:10.333Z,8.70
2018-01-01T13:31:38.360Z,8.70
2018-01-01T13:34:06.676Z,8.80
2018-01-01T13:36:34.704Z,8.90
2018-01-01T13:39:03.528Z,8.90
2018-01-01T13:41:31.588Z,8.90
2018-01-01T13:43:59.631Z,9.10
2018-01-01T13:46:27.682Z,9.40
2018-01-01T13:48:55.712Z,9.60
2018-01-01T13:51:23.777Z,9.80
2018-01-01T13:53:51.833Z,9.90
2018-01-01T13:56:20.515Z,9.70
2018-01-01T13:58:49.325Z,9.30
2018-01-01T14:01:17.362Z,9.30
2018-01-01T14:03:45.409Z,9.20
2018-01-01T14:06:13.436Z,9.20
2018-01-01T14:08:41.501Z,9.00
2018-01-01T14:11:09.555Z,9.00
2018-01-01T14:13:37.601Z,8.90
2018-01-01T14:16:05.655Z,8.90
2018-01-01T14:18:33.680Z,8.80
2018-01-01T14:21:02.523Z,8.80
2018-01-01T14:23:30.592Z,8.80
2018-01-01T14:25:58.623Z,8.90
2018-01-01T14:28:26.676Z,8.90
2018-01-01T14:30:54.727Z,8.90
2018-01-01T14:33:23.526Z,9.00
2018-01-01T14:35:52.437Z,8.90
2018-01-01T14:38:21.253Z,8.90
2018-01-01T14:40:49.436Z,8.80
2018-01-01T14:43:17.533Z,8.90
2018-01-01T14:45:45.568Z,8.80
2018-01-01T14:48:13.617Z,8.90
2018-01-01T14:50:42.801Z,8.80
2018-01-01T14:53:10.820Z,8.80
2018-01-01T14:55:38.878Z,8.70
2018-01-01T14:58:06.928Z,8.50
2018-01-01T15:00:35.732Z,8.40
2018-01-01T15:03:04.558Z,8.30
2018-01-01T15:05:32.632Z,8.30
2018-01-01T15:08:00.673Z,8.30
2018-01-01T15:10:28.736Z,8.20
2018-01-01T15:12:57.524Z,8.10
2018-01-01T15:15:26.312Z,8.10
2018-01-01T15:17:54.381Z,8.00
2018-01-01T15:20:22.428Z,7.90
2018-01-01T15:22:50.460Z,7.90
2018-01-01T15:25:18.513Z,7.80
2018-01-01T15:27:47.329Z,7.70
2018-01-01T15:30:17.018Z,7.60
2018-01-01T15:32:45.076Z,7.50
2018-01-01T15:35:13.100Z,7.50
2018-01-01T15:37:41.916Z,7.40
2018-01-01T15:40:10.713Z,7.30
2018-01-01T15:42:39.524Z,7.30
2018-01-01T15:45:07.572Z,7.30
2018-01-01T15:47:35.617Z,7.30
2018-01-01T15:50:03.674Z,7.20
2018-01-01T15:52:32.498Z,7.20
2018-01-01T15:55:00.533Z,7.10
2018-01-01T15:57:28.677Z,7.20
2018-01-01T15:59:56.700Z,6.90
2018-01-01T16:02:26.259Z,6.60
2018-01-01T16:04:54.312Z,6.60
2018-01-01T16:07:22.361Z,6.60
2018-01-01T16:09:51.662Z,6.60
2018-01-01T16:12:21.547Z,6.50
2018-01-01T16:14:50.049Z,6.50
2018-01-01T16:17:19.118Z,6.50
2018-01-01T16:19:48.025Z,6.50
2018-01-01T16:22:16.108Z,6.50
2018-01-01T16:24:45.014Z,6.50
2018-01-01T16:27:14.881Z,6.30
2018-01-01T16:29:45.386Z,6.20
2018-01-01T16:32:14.277Z,6.20
2018-01-01T16:34:43.977Z,6.20
2018-01-01T16:37:12.074Z,6.30
2018-01-01T16:39:40.431Z,6.30
2018-01-01T16:42:08.668Z,6.30
2018-01-01T16:44:37.549Z,6.40
2018-01-01T16:47:05.672Z,6.50
2018-01-01T16:49:34.121Z,6.30
2018-01-01T16:52:02.452Z,6.40
2018-01-01T16:54:31.353Z,6.40
2018-01-01T16:57:01.199Z,6.30
2018-01-01T16:59:29.452Z,6.30
2018-01-01T17:01:59.132Z,6.40
2018-01-01T17:04:28.027Z,6.40
2018-01-01T17:06:56.214Z,6.30
2018-01-01T17:09:27.326Z,6.40
2018-01-01T17:11:55.656Z,6.40
2018-01-01T17:14:25.914Z,6.40
2018-01-01T17:16:57.313Z,6.40
2018-01-01T17:19:31.994Z,6.40
2018-01-01T17:22:01.113Z,6.40
2018-01-01T17:24:29.386Z,6.40
2018-01-01T17:26:59.375Z,6.40
2018-01-01T17:29:29.885Z,6.40
2018-01-01T17:31:58.605Z,6.40
2018-01-01T17:34:28.329Z,6.40
2018-01-01T17:36:58.211Z,6.50
2018-01-01T17:39:28.261Z,6.40
2018-01-01T17:41:59.241Z,6.40
2018-01-01T17:44:32.348Z,6.40
2018-01-01T17:47:00.805Z,6.40
2018-01-01T17:49:29.012Z,6.40
2018-01-01T17:51:58.297Z,6.40
2018-01-01T17:54:29.597Z,6.30
2018-01-01T17:57:00.129Z,6.40
2018-01-01T17:59:28.344Z,6.40
2018-01-01T18:01:58.116Z,6.40
2018-01-01T18:04:29.454Z,6.40
2018-01-01T18:06:57.982Z,6.40
2018-01-01T18:09:27.784Z,6.40
2018-01-01T18:11:56.622Z,6.30
2018-01-01T18:14:24.716Z,6.30
2018-01-01T18:16:52.837Z,6.40
2018-01-01T18:19:20.896Z,6.40
2018-01-01T18:21:48.956Z,6.30
2018-01-01T18:24:16.995Z,6.40
2018-01-01T18:29:27.331Z,6.40
2018-01-01T18:31:55.794Z,6.40
2018-01-01T18:34:31.377Z,6.40
2018-01-01T18:36:59.730Z,6.50
2018-01-01T18:39:28.093Z,6.50
2018-01-01T18:41:56.214Z,6.50
2018-01-01T18:44:26.490Z,6.50
2018-01-01T18:46:56.356Z,6.50
2018-01-01T18:49:24.396Z,6.70
2018-01-01T18:51:52.466Z,6.70
2018-01-01T18:54:25.904Z,6.70
2018-01-01T18:56:58.307Z,6.70
2018-01-01T18:59:29.209Z,6.70
2018-01-01T19:02:00.621Z,6.70
2018-01-01T19:04:29.483Z,6.70
2018-01-01T19:06:57.608Z,6.70
2018-01-01T19:09:25.644Z,6.70
2018-01-01T19:11:54.465Z,6.80
2018-01-01T19:14:22.513Z,6.70
2018-01-01T19:16:50.638Z,6.80
2018-01-01T19:19:18.692Z,6.80
2018-01-01T19:21:47.521Z,6.70
2018-01-01T19:24:15.553Z,6.60
2018-01-01T19:26:43.610Z,6.60
2018-01-01T19:29:11.656Z,6.70
2018-01-01T19:31:40.454Z,6.60
2018-01-01T19:34:08.508Z,6.60
2018-01-01T19:36:36.557Z,6.60
2018-01-01T19:39:04.598Z,6.60
2018-01-01T19:41:33.418Z,6.50
2018-01-01T19:44:01.485Z,6.50
2018-01-01T19:46:30.800Z,6.50
2018-01-01T19:48:59.651Z,6.60
2018-01-01T19:51:27.728Z,6.50
2018-01-01T19:53:55.756Z,6.60
2018-01-01T19:56:23.817Z,6.60
2018-01-01T19:58:52.185Z,6.60
2018-01-01T20:01:20.216Z,6.60
2018-01-01T20:03:48.265Z,6.60
2018-01-01T20:06:16.308Z,6.70
2018-01-01T20:08:45.984Z,6.70
2018-01-01T20:11:32.796Z,6.70
2018-01-01T20:14:06.396Z,6.00
2018-01-01T20:16:35.297Z,6.80
2018-01-01T20:19:03.348Z,6.70
2018-01-01T20:21:32.163Z,6.80
2018-01-01T20:24:00.225Z,6.80
2018-01-01T20:26:29.058Z,6.80
2018-01-01T20:28:57.088Z,6.80
2018-01-01T20:31:25.151Z,6.80
2018-01-01T20:33:53.201Z,6.90
2018-01-01T20:36:21.241Z,6.90
2018-01-01T20:38:49.290Z,6.90
2018-01-01T20:41:17.357Z,6.90
2018-01-01T20:43:45.381Z,6.90
2018-01-01T20:46:13.452Z,6.90
2018-01-01T20:48:41.501Z,6.90
2018-01-01T20:51:09.573Z,6.80
2018-01-01T20:53:38.384Z,6.90
2018-01-01T20:56:06.433Z,6.80
2018-01-01T20:58:34.495Z,7.00
2018-01-01T21:01:02.589Z,7.00
2018-01-01T21:03:30.644Z,7.10
2018-01-01T21:05:58.694Z,7.10
2018-01-01T21:08:28.015Z,7.10
2018-01-01T21:10:56.893Z,7.10
2018-01-01T21:13:24.924Z,7.00
2018-01-01T21:15:53.073Z,7.10
2018-01-01T21:18:21.094Z,7.10
2018-01-01T21:20:49.153Z,7.10
2018-01-01T21:23:18.985Z,7.10
2018-01-01T21:25:47.040Z,7.00
2018-01-01T21:28:15.993Z,7.10
2018-01-01T21:30:44.046Z,7.10
2018-01-01T21:33:12.872Z,7.10
2018-01-01T21:35:40.923Z,7.00
2018-01-01T21:38:09.005Z,7.10
2018-01-01T21:40:37.122Z,7.00
2018-01-01T21:43:05.173Z,7.10
2018-01-01T21:45:33.244Z,7.10
2018-01-01T21:48:01.333Z,7.10
2018-01-01T21:50:30.173Z,7.10
2018-01-01T21:52:58.244Z,7.00
2018-01-01T21:55:26.301Z,7.10
2018-01-01T21:57:54.333Z,7.10
2018-01-01T22:00:22.397Z,7.10
2018-01-01T22:02:51.229Z,7.10
2018-01-01T22:05:19.263Z,7.00
2018-01-01T22:07:47.332Z,7.10
2018-01-01T22:10:15.404Z,7.10
2018-01-01T22:12:43.445Z,7.10
2018-01-01T22:15:11.497Z,7.00
2018-01-01T22:17:39.554Z,7.00
2018-01-01T22:20:07.597Z,7.00
2018-01-01T22:22:35.652Z,7.00
2018-01-01T22:25:04.495Z,7.00
2018-01-01T22:27:32.540Z,7.00
2018-01-01T22:30:00.638Z,7.10
2018-01-01T22:32:29.502Z,7.10
2018-01-01T22:34:57.937Z,7.10
2018-01-01T22:37:26.026Z,7.10
2018-01-01T22:39:54.092Z,7.10
2018-01-01T22:42:22.124Z,7.20
2018-01-01T22:44:50.189Z,7.10
2018-01-01T22:47:18.232Z,7.20
2018-01-01T22:49:46.279Z,7.20
2018-01-01T22:52:14.332Z,7.30
2018-01-01T22:54:42.397Z,7.20
2018-01-01T22:57:11.204Z,7.30
2018-01-01T22:59:40.022Z,7.30
2018-01-01T23:02:08.077Z,7.20
2018-01-01T23:04:36.113Z,7.30
2018-01-01T23:07:04.165Z,7.30
2018-01-01T23:09:32.240Z,7.30
2018-01-01T23:12:01.060Z,7.40
2018-01-01T23:14:29.133Z,7.30
2018-01-01T23:16:57.209Z,7.30
2018-01-01T23:19:25.280Z,7.30
2018-01-01T23:21:53.357Z,7.30
2018-01-01T23:24:21.383Z,7.20
2018-01-01T23:26:49.442Z,7.20
2018-01-01T23:29:18.269Z,7.10
2018-01-01T23:31:46.308Z,7.10
2018-01-01T23:34:14.356Z,7.10
2018-01-01T23:36:42.409Z,7.00
2018-01-01T23:39:10.769Z,7.00
2018-01-01T23:41:38.828Z,6.90
2018-01-01T23:44:07.460Z,6.90
2018-01-01T23:46:35.497Z,6.80
2018-01-01T23:49:03.568Z,6.80
2018-01-01T23:51:31.633Z,6.70
2018-01-01T23:53:59.739Z,6.70
2018-01-01T23:56:27.841Z,6.70
2018-01-01T23:58:55.917Z,6.70
